createdAt,value
2022-10-08T00:02:18.100Z,21.97
2022-10-08T00:04:46.233Z,21.86
2022-10-08T00:07:13.376Z,21.89
2022-10-08T00:09:40.701Z,21.85
2022-10-08T00:12:08.106Z,21.74
2022-10-08T00:14:35.217Z,21.84
2022-10-08T00:17:02.388Z,21.84
2022-10-08T00:19:29.760Z,21.79
2022-10-08T00:21:57.317Z,21.79
2022-10-08T00:24:24.437Z,21.81
2022-10-08T00:26:52.586Z,21.83
2022-10-08T00:29:21.287Z,21.79
2022-10-08T00:31:49.147Z,21.73
2022-10-08T00:34:18.223Z,21.63
2022-10-08T00:36:45.578Z,21.61
2022-10-08T00:39:17.143Z,21.60
2022-10-08T00:41:45.763Z,21.61
2022-10-08T00:44:31.718Z,21.66
2022-10-08T00:46:59.098Z,21.68
2022-10-08T00:49:26.240Z,21.58
2022-10-08T00:51:54.548Z,21.56
2022-10-08T00:54:22.377Z,21.60
2022-10-08T00:56:51.295Z,21.51
2022-10-08T00:59:18.423Z,21.44
2022-10-08T01:01:45.857Z,21.39
2022-10-08T01:04:13.228Z,21.47
2022-10-08T01:06:43.419Z,21.41
2022-10-08T01:09:18.904Z,21.45
2022-10-08T01:11:51.941Z,21.46
2022-10-08T01:14:34.757Z,21.35
2022-10-08T01:17:04.646Z,21.27
2022-10-08T01:19:50.929Z,21.21
2022-10-08T01:22:29.721Z,21.20
2022-10-08T01:25:16.893Z,21.11
2022-10-08T01:27:45.719Z,20.99
2022-10-08T01:30:14.680Z,21.08
2022-10-08T01:32:43.904Z,21.25
2022-10-08T01:35:11.933Z,21.20
2022-10-08T01:37:41.311Z,21.16
2022-10-08T01:40:10.243Z,21.06
2022-10-08T01:42:38.109Z,21.05
2022-10-08T01:45:06.932Z,21.04
2022-10-08T01:47:34.039Z,21.08
2022-10-08T01:50:06.186Z,21.05
2022-10-08T01:52:34.541Z,21.10
2022-10-08T01:55:02.449Z,21.07
2022-10-08T01:57:29.710Z,21.01
2022-10-08T01:59:58.495Z,21.03
2022-10-08T02:02:26.050Z,20.99
2022-10-08T02:04:54.448Z,20.74
2022-10-08T02:07:31.397Z,20.85
2022-10-08T02:10:15.219Z,20.83
2022-10-08T02:12:42.609Z,20.85
2022-10-08T02:15:18.400Z,20.87
2022-10-08T02:18:06.209Z,20.85
2022-10-08T02:20:41.210Z,20.81
2022-10-08T02:23:23.821Z,20.89
2022-10-08T02:26:04.222Z,20.87
2022-10-08T02:28:34.387Z,20.73
2022-10-08T02:31:06.081Z,20.89
2022-10-08T02:33:34.656Z,20.97
2022-10-08T02:36:02.212Z,20.91
2022-10-08T02:38:32.733Z,20.92
2022-10-08T02:41:00.207Z,20.73
2022-10-08T02:43:29.420Z,20.88
2022-10-08T02:45:59.630Z,20.82
2022-10-08T02:48:28.090Z,20.84
2022-10-08T02:50:55.486Z,20.89
2022-10-08T02:53:23.420Z,20.89
2022-10-08T02:55:54.865Z,20.79
2022-10-08T02:58:22.424Z,20.58
2022-10-08T03:01:08.321Z,20.75
2022-10-08T03:03:36.806Z,20.74
2022-10-08T03:06:05.039Z,20.74
2022-10-08T03:08:34.351Z,20.66
2022-10-08T03:11:01.783Z,20.77
2022-10-08T03:13:28.899Z,20.75
2022-10-08T03:15:56.145Z,20.68
2022-10-08T03:18:24.975Z,20.64
2022-10-08T03:20:52.076Z,20.68
2022-10-08T03:23:19.432Z,20.69
2022-10-08T03:25:46.822Z,20.62
2022-10-08T03:28:14.272Z,20.52
2022-10-08T03:30:41.542Z,20.57
2022-10-08T03:33:09.020Z,20.61
2022-10-08T03:35:36.198Z,20.64
2022-10-08T03:38:03.348Z,20.57
2022-10-08T03:40:30.967Z,20.53
2022-10-08T03:42:58.090Z,20.55
2022-10-08T03:45:25.228Z,20.45
2022-10-08T03:47:52.614Z,20.46
2022-10-08T03:50:20.549Z,20.46
2022-10-08T03:52:47.915Z,20.36
2022-10-08T03:55:15.628Z,20.15
2022-10-08T03:57:42.784Z,20.29
2022-10-08T04:00:10.236Z,20.22
2022-10-08T04:02:37.729Z,20.23
2022-10-08T04:05:05.026Z,20.31
2022-10-08T04:07:32.136Z,20.24
2022-10-08T04:09:59.544Z,20.24
2022-10-08T04:12:26.671Z,20.23
2022-10-08T04:14:53.820Z,20.25
2022-10-08T04:17:21.223Z,20.18
2022-10-08T04:19:48.518Z,20.11
2022-10-08T04:22:15.686Z,20.26
2022-10-08T04:24:43.246Z,20.29
2022-10-08T04:27:10.375Z,20.29
2022-10-08T04:29:37.509Z,20.26
2022-10-08T04:32:04.972Z,19.77
2022-10-08T04:34:32.960Z,20.02
2022-10-08T04:37:00.103Z,19.90
2022-10-08T04:39:27.499Z,19.34
2022-10-08T04:41:54.600Z,19.84
2022-10-08T04:44:21.903Z,20.06
2022-10-08T04:46:49.399Z,20.27
2022-10-08T04:49:16.563Z,19.96
2022-10-08T04:51:43.637Z,19.84
2022-10-08T04:54:11.042Z,20.09
2022-10-08T04:56:38.349Z,19.11
2022-10-08T04:59:05.525Z,19.63
2022-10-08T05:01:32.988Z,19.81
2022-10-08T05:04:00.579Z,19.30
2022-10-08T05:06:28.765Z,19.66
2022-10-08T05:08:56.458Z,19.40
2022-10-08T05:11:27.591Z,19.12
2022-10-08T05:13:55.153Z,19.62
2022-10-08T05:16:22.717Z,19.95
2022-10-08T05:18:51.916Z,19.41
2022-10-08T05:21:20.236Z,19.36
2022-10-08T05:23:47.631Z,19.26
2022-10-08T05:26:16.123Z,18.66
2022-10-08T05:28:44.173Z,18.99
2022-10-08T05:31:11.721Z,18.38
2022-10-08T05:33:38.908Z,19.07
2022-10-08T05:36:07.146Z,18.51
2022-10-08T05:38:35.485Z,18.73
2022-10-08T05:41:13.489Z,18.44
2022-10-08T05:43:41.067Z,18.49
2022-10-08T05:46:08.199Z,18.09
2022-10-08T05:48:35.677Z,17.84
2022-10-08T05:51:03.630Z,18.16
2022-10-08T05:53:30.763Z,18.42
2022-10-08T05:56:04.713Z,17.90
2022-10-08T05:58:33.894Z,18.19
2022-10-08T06:01:01.401Z,18.73
2022-10-08T06:03:28.776Z,17.79
2022-10-08T06:05:56.088Z,18.61
2022-10-08T06:08:23.217Z,18.88
2022-10-08T06:10:51.395Z,19.04
2022-10-08T06:13:21.567Z,18.82
2022-10-08T06:16:14.982Z,18.17
2022-10-08T06:18:42.406Z,18.21
2022-10-08T06:21:10.761Z,18.53
2022-10-08T06:23:38.518Z,18.31
2022-10-08T06:26:06.870Z,17.74
2022-10-08T06:28:34.771Z,17.46
2022-10-08T06:31:01.947Z,18.64
2022-10-08T06:33:29.448Z,18.27
2022-10-08T06:35:56.609Z,18.43
2022-10-08T06:38:23.725Z,18.35
2022-10-08T06:40:51.336Z,17.84
2022-10-08T06:43:18.919Z,17.07
2022-10-08T06:45:46.258Z,18.18
2022-10-08T06:48:13.893Z,18.32
2022-10-08T06:50:41.121Z,18.21
2022-10-08T06:53:11.866Z,18.72
2022-10-08T06:55:39.341Z,18.93
2022-10-08T06:58:06.449Z,19.00
2022-10-08T07:00:33.694Z,18.76
2022-10-08T07:03:01.454Z,19.28
2022-10-08T07:05:28.601Z,20.11
2022-10-08T07:07:55.754Z,19.22
2022-10-08T07:10:23.268Z,18.81
2022-10-08T07:12:50.704Z,18.31
2022-10-08T07:15:18.237Z,18.11
2022-10-08T07:17:45.660Z,18.15
2022-10-08T07:20:12.930Z,18.26
2022-10-08T07:22:40.075Z,18.13
2022-10-08T07:25:07.648Z,17.99
2022-10-08T07:27:34.769Z,19.13
2022-10-08T07:30:01.883Z,19.30
2022-10-08T07:32:29.280Z,18.61
2022-10-08T07:34:59.937Z,19.20
2022-10-08T07:37:27.285Z,20.23
2022-10-08T07:39:57.444Z,20.52
2022-10-08T07:42:24.568Z,19.95
2022-10-08T07:44:51.700Z,20.65
2022-10-08T07:47:19.173Z,21.07
2022-10-08T07:49:46.317Z,21.24
2022-10-08T07:52:13.479Z,20.92
2022-10-08T07:54:41.030Z,20.07
2022-10-08T07:57:08.437Z,21.33
2022-10-08T07:59:35.875Z,21.17
2022-10-08T08:02:03.498Z,21.58
2022-10-08T08:04:30.996Z,21.46
2022-10-08T08:06:58.106Z,20.82
2022-10-08T08:09:25.289Z,21.37
2022-10-08T08:11:53.187Z,21.66
2022-10-08T08:14:21.920Z,21.67
2022-10-08T08:16:49.139Z,21.34
2022-10-08T08:19:16.568Z,22.09
2022-10-08T08:21:43.794Z,21.88
2022-10-08T08:24:11.697Z,22.20
2022-10-08T08:26:39.778Z,22.14
2022-10-08T08:29:08.023Z,22.11
2022-10-08T08:31:35.996Z,22.12
2022-10-08T08:34:13.241Z,22.33
2022-10-08T08:36:44.560Z,21.64
2022-10-08T08:39:19.068Z,21.49
2022-10-08T08:41:49.303Z,22.52
2022-10-08T08:44:16.639Z,22.02
2022-10-08T08:46:44.758Z,22.24
2022-10-08T08:49:16.643Z,22.62
2022-10-08T08:51:44.038Z,22.78
2022-10-08T08:54:11.235Z,22.97
2022-10-08T08:56:38.409Z,22.93
2022-10-08T08:59:08.586Z,22.22
2022-10-08T09:01:45.266Z,21.79
2022-10-08T09:04:31.497Z,21.67
2022-10-08T09:06:58.669Z,22.08
2022-10-08T09:09:34.145Z,21.75
2022-10-08T09:12:03.401Z,22.58
2022-10-08T09:14:44.523Z,22.32
2022-10-08T09:17:19.027Z,22.81
2022-10-08T09:19:46.642Z,23.38
2022-10-08T09:22:24.120Z,23.18
2022-10-08T09:24:56.479Z,23.43
2022-10-08T09:27:23.633Z,24.13
2022-10-08T09:29:50.752Z,23.62
2022-10-08T09:32:19.162Z,22.45
2022-10-08T09:34:48.310Z,23.52
2022-10-08T09:37:19.300Z,23.84
2022-10-08T09:40:06.245Z,23.63
2022-10-08T09:42:33.474Z,23.28
2022-10-08T09:45:03.999Z,24.10
2022-10-08T09:47:31.291Z,24.02
2022-10-08T09:50:07.607Z,23.67
2022-10-08T09:52:35.219Z,24.21
2022-10-08T09:55:03.880Z,23.41
2022-10-08T09:57:31.027Z,23.59
2022-10-08T10:00:00.169Z,24.03
2022-10-08T10:02:34.196Z,23.59
2022-10-08T10:05:03.202Z,23.34
2022-10-08T10:07:38.746Z,23.01
2022-10-08T10:10:09.525Z,23.85
2022-10-08T10:12:37.112Z,23.68
2022-10-08T10:15:07.405Z,23.54
2022-10-08T10:17:51.614Z,23.84
2022-10-08T10:20:24.751Z,24.54
2022-10-08T10:23:10.440Z,24.52
2022-10-08T10:25:43.859Z,24.62
2022-10-08T10:28:12.832Z,24.38
2022-10-08T10:30:48.183Z,24.07
2022-10-08T10:33:20.961Z,24.64
2022-10-08T10:35:52.980Z,24.47
2022-10-08T10:38:29.738Z,24.68
2022-10-08T10:41:09.437Z,24.61
2022-10-08T10:43:40.998Z,25.06
2022-10-08T10:46:26.877Z,24.18
2022-10-08T10:48:54.969Z,24.94
2022-10-08T10:51:42.478Z,25.10
2022-10-08T10:54:12.599Z,24.82
2022-10-08T10:56:42.528Z,23.98
2022-10-08T10:59:25.140Z,24.67
2022-10-08T11:02:00.861Z,24.88
2022-10-08T11:04:47.181Z,24.75
2022-10-08T11:07:23.336Z,25.12
2022-10-08T11:09:51.185Z,24.45
2022-10-08T11:12:21.361Z,25.09
2022-10-08T11:14:54.308Z,24.72
2022-10-08T11:17:34.008Z,25.24
2022-10-08T11:20:10.449Z,25.54
2022-10-08T11:22:39.501Z,25.79
2022-10-08T11:25:15.721Z,25.80
2022-10-08T11:27:43.074Z,25.20
2022-10-08T11:30:14.704Z,25.51
2022-10-08T11:32:42.877Z,26.08
2022-10-08T11:35:25.211Z,26.31
2022-10-08T11:37:52.313Z,26.67
2022-10-08T11:40:21.498Z,26.68
2022-10-08T11:42:55.005Z,25.89
2022-10-08T11:45:25.999Z,26.19
2022-10-08T11:47:54.426Z,25.83
2022-10-08T11:50:29.067Z,25.81
2022-10-08T11:52:57.548Z,25.10
2022-10-08T11:55:30.778Z,25.77
2022-10-08T11:58:09.557Z,25.36
2022-10-08T12:00:38.122Z,25.72
2022-10-08T12:03:06.364Z,25.61
2022-10-08T12:05:47.948Z,24.98
2022-10-08T12:08:36.688Z,25.18
2022-10-08T12:11:22.560Z,24.84
2022-10-08T12:14:11.170Z,25.32
2022-10-08T12:16:47.718Z,25.54
2022-10-08T12:19:33.380Z,25.72
2022-10-08T12:22:04.382Z,25.59
2022-10-08T12:24:37.783Z,25.03
2022-10-08T12:27:17.119Z,24.84
2022-10-08T12:30:03.725Z,25.04
2022-10-08T12:32:31.828Z,24.49
2022-10-08T12:34:59.541Z,25.54
2022-10-08T12:37:26.585Z,24.97
2022-10-08T12:39:53.918Z,25.20
2022-10-08T12:42:22.770Z,25.42
2022-10-08T12:45:11.371Z,25.23
2022-10-08T12:47:41.223Z,24.13
2022-10-08T12:50:23.689Z,24.41
2022-10-08T12:52:51.103Z,25.28
2022-10-08T12:55:19.005Z,23.99
2022-10-08T12:57:46.930Z,25.02
2022-10-08T13:00:24.602Z,25.49
2022-10-08T13:03:20.202Z,25.94
2022-10-08T13:05:48.198Z,25.66
2022-10-08T13:08:34.932Z,24.78
2022-10-08T13:11:04.103Z,25.31
2022-10-08T13:13:40.260Z,25.06
2022-10-08T13:16:14.613Z,25.42
2022-10-08T13:18:48.940Z,25.73
2022-10-08T13:21:31.646Z,26.15
2022-10-08T13:23:59.267Z,26.34
2022-10-08T13:26:46.047Z,26.27
2022-10-08T13:29:22.437Z,26.41
2022-10-08T13:32:03.995Z,26.63
2022-10-08T13:34:32.088Z,25.85
2022-10-08T13:37:00.669Z,26.59
2022-10-08T13:39:29.050Z,26.89
2022-10-08T13:41:57.839Z,26.70
2022-10-08T13:44:25.373Z,26.72
2022-10-08T13:46:52.654Z,26.74
2022-10-08T13:49:21.222Z,26.79
2022-10-08T13:51:49.106Z,26.85
2022-10-08T13:54:23.583Z,26.98
2022-10-08T13:56:51.090Z,26.76
2022-10-08T13:59:18.634Z,26.85
2022-10-08T14:01:46.037Z,26.49
2022-10-08T14:04:13.711Z,26.46
2022-10-08T14:06:40.983Z,26.74
2022-10-08T14:09:09.657Z,26.86
2022-10-08T14:11:37.564Z,26.81
2022-10-08T14:14:04.693Z,26.73
2022-10-08T14:16:31.866Z,26.57
2022-10-08T14:18:59.623Z,26.85
2022-10-08T14:21:26.767Z,26.43
2022-10-08T14:23:53.893Z,26.16
2022-10-08T14:26:21.302Z,26.38
2022-10-08T14:28:48.510Z,26.48
2022-10-08T14:31:15.813Z,26.37
2022-10-08T14:33:43.258Z,26.41
2022-10-08T14:36:17.402Z,26.39
2022-10-08T14:38:44.801Z,26.65
2022-10-08T14:41:13.815Z,26.36
2022-10-08T14:43:41.033Z,26.36
2022-10-08T14:46:08.683Z,26.18
2022-10-08T14:48:35.854Z,26.39
2022-10-08T14:51:03.074Z,26.33
2022-10-08T14:53:30.461Z,26.44
2022-10-08T14:56:11.704Z,26.09
2022-10-08T14:58:40.393Z,26.00
2022-10-08T15:01:07.608Z,26.06
2022-10-08T15:03:34.772Z,26.32
2022-10-08T15:06:02.252Z,26.16
2022-10-08T15:08:29.380Z,26.08
2022-10-08T15:10:56.514Z,25.89
2022-10-08T15:13:23.977Z,26.03
2022-10-08T15:15:51.110Z,26.22
2022-10-08T15:18:18.246Z,26.11
2022-10-08T15:20:53.207Z,26.02
2022-10-08T15:23:20.328Z,26.05
2022-10-08T15:25:54.759Z,26.10
2022-10-08T15:28:21.960Z,26.00
2022-10-08T15:30:49.473Z,26.02
2022-10-08T15:33:16.605Z,26.02
2022-10-08T15:35:44.273Z,26.04
2022-10-08T15:38:11.732Z,25.82
2022-10-08T15:40:38.873Z,26.00
2022-10-08T15:43:06.034Z,26.00
2022-10-08T15:45:35.925Z,25.93
2022-10-08T15:48:03.068Z,25.62
2022-10-08T15:50:30.235Z,25.65
2022-10-08T15:52:57.616Z,25.78
2022-10-08T15:55:24.774Z,25.73
2022-10-08T15:57:52.276Z,25.49
2022-10-08T16:00:19.667Z,25.62
2022-10-08T16:02:47.327Z,25.58
2022-10-08T16:05:14.779Z,25.56
2022-10-08T16:07:41.913Z,25.34
2022-10-08T16:10:09.305Z,25.35
2022-10-08T16:12:36.448Z,25.16
2022-10-08T16:15:03.664Z,25.17
2022-10-08T16:17:31.084Z,25.26
2022-10-08T16:19:58.212Z,25.32
2022-10-08T16:22:25.365Z,25.21
2022-10-08T16:24:52.770Z,25.21
2022-10-08T16:27:19.896Z,25.02
2022-10-08T16:29:47.015Z,24.94
2022-10-08T16:32:16.036Z,24.88
2022-10-08T16:34:45.301Z,24.90
2022-10-08T16:37:13.415Z,24.82
2022-10-08T16:39:41.307Z,24.88
2022-10-08T16:42:08.539Z,24.87
2022-10-08T16:44:35.636Z,24.77
2022-10-08T16:47:03.086Z,24.82
2022-10-08T16:49:30.287Z,24.80
2022-10-08T16:52:00.171Z,24.70
2022-10-08T16:54:27.963Z,24.57
2022-10-08T16:56:55.129Z,24.65
2022-10-08T16:59:23.392Z,24.52
2022-10-08T17:01:52.085Z,24.45
2022-10-08T17:04:19.666Z,24.49
2022-10-08T17:06:46.988Z,24.28
2022-10-08T17:09:14.505Z,24.21
2022-10-08T17:11:42.000Z,24.08
2022-10-08T17:14:10.295Z,24.24
2022-10-08T17:16:38.351Z,24.23
2022-10-08T17:19:05.705Z,24.43
2022-10-08T17:21:34.862Z,24.40
2022-10-08T17:24:02.912Z,24.48
2022-10-08T17:26:30.935Z,24.49
2022-10-08T17:29:02.136Z,24.44
2022-10-08T17:31:31.692Z,24.33
2022-10-08T17:33:59.637Z,24.12
2022-10-08T17:36:27.872Z,24.27
2022-10-08T17:38:56.481Z,24.22
2022-10-08T17:41:27.412Z,24.15
2022-10-08T17:43:58.101Z,24.18
2022-10-08T17:46:34.584Z,24.30
2022-10-08T17:49:03.147Z,24.31
2022-10-08T17:51:30.516Z,24.53
2022-10-08T17:53:58.661Z,24.54
2022-10-08T17:56:26.492Z,24.44
2022-10-08T17:58:53.995Z,24.48
2022-10-08T18:01:22.434Z,24.23
2022-10-08T18:03:53.933Z,24.34
2022-10-08T18:06:21.335Z,24.23
2022-10-08T18:08:48.885Z,24.29
2022-10-08T18:11:16.458Z,24.26
2022-10-08T18:13:44.001Z,24.20
2022-10-08T18:16:13.193Z,24.21
2022-10-08T18:18:41.289Z,24.19
2022-10-08T18:21:09.269Z,24.16
2022-10-08T18:23:37.056Z,23.95
2022-10-08T18:26:17.069Z,23.76
2022-10-08T18:28:44.937Z,23.59
2022-10-08T18:31:12.532Z,23.57
2022-10-08T18:33:40.332Z,23.40
2022-10-08T18:36:13.406Z,23.55
2022-10-08T18:38:41.068Z,23.46
2022-10-08T18:41:12.221Z,23.67
2022-10-08T18:43:39.356Z,23.74
2022-10-08T18:46:06.831Z,23.75
2022-10-08T18:48:34.680Z,23.78
2022-10-08T18:51:06.223Z,23.74
2022-10-08T18:53:34.159Z,23.75
2022-10-08T18:56:01.842Z,23.62
2022-10-08T18:58:29.518Z,23.60
2022-10-08T19:00:57.122Z,23.58
2022-10-08T19:03:24.803Z,23.67
2022-10-08T19:05:52.189Z,23.45
2022-10-08T19:08:19.580Z,23.16
2022-10-08T19:10:46.730Z,23.25
2022-10-08T19:13:13.909Z,23.10
2022-10-08T19:15:41.711Z,23.22
2022-10-08T19:18:08.998Z,23.21
2022-10-08T19:20:36.233Z,23.19
2022-10-08T19:23:03.664Z,23.22
2022-10-08T19:25:31.187Z,23.30
2022-10-08T19:27:58.368Z,23.23
2022-10-08T19:30:30.606Z,23.21
2022-10-08T19:33:01.844Z,23.24
2022-10-08T19:35:30.546Z,23.23
2022-10-08T19:37:58.180Z,23.23
2022-10-08T19:40:25.441Z,23.16
2022-10-08T19:42:53.256Z,23.17
2022-10-08T19:45:20.962Z,23.11
2022-10-08T19:47:48.644Z,23.02
2022-10-08T19:50:16.571Z,23.08
2022-10-08T19:52:46.556Z,23.12
2022-10-08T19:55:17.497Z,23.09
2022-10-08T19:57:44.903Z,22.92
2022-10-08T20:00:13.423Z,22.51
2022-10-08T20:02:40.852Z,22.64
2022-10-08T20:05:08.237Z,22.47
2022-10-08T20:07:35.372Z,22.64
2022-10-08T20:10:02.801Z,22.45
2022-10-08T20:12:35.246Z,22.34
2022-10-08T20:15:03.183Z,22.33
2022-10-08T20:17:30.391Z,22.39
2022-10-08T20:20:09.669Z,22.51
2022-10-08T20:22:44.972Z,22.34
2022-10-08T20:25:12.092Z,22.52
2022-10-08T20:27:39.255Z,22.61
2022-10-08T20:30:06.917Z,22.73
2022-10-08T20:32:34.077Z,22.75
2022-10-08T20:35:01.209Z,22.69
2022-10-08T20:37:28.631Z,22.75
2022-10-08T20:39:55.750Z,22.86
2022-10-08T20:42:23.497Z,22.80
2022-10-08T20:44:50.948Z,22.66
2022-10-08T20:47:18.066Z,22.41
2022-10-08T20:49:45.209Z,22.53
2022-10-08T20:52:12.647Z,22.56
2022-10-08T20:54:39.759Z,22.68
2022-10-08T20:57:06.907Z,22.68
2022-10-08T20:59:34.310Z,22.62
2022-10-08T21:02:01.563Z,22.67
2022-10-08T21:04:28.735Z,22.73
2022-10-08T21:06:56.099Z,22.73
2022-10-08T21:09:23.227Z,22.69
2022-10-08T21:11:50.409Z,22.64
2022-10-08T21:14:18.612Z,22.58
2022-10-08T21:16:45.755Z,22.57
2022-10-08T21:19:14.202Z,22.60
2022-10-08T21:21:41.699Z,22.56
2022-10-08T21:24:09.346Z,22.50
2022-10-08T21:26:39.471Z,22.43
2022-10-08T21:29:07.841Z,22.29
2022-10-08T21:31:35.602Z,22.52
2022-10-08T21:34:02.810Z,22.54
2022-10-08T21:36:31.230Z,22.68
2022-10-08T21:38:58.698Z,22.64
2022-10-08T21:41:27.708Z,22.64
2022-10-08T21:43:56.860Z,22.59
2022-10-08T21:46:30.355Z,22.58
2022-10-08T21:49:01.806Z,22.48
2022-10-08T21:51:29.243Z,22.62
2022-10-08T21:53:57.212Z,22.49
2022-10-08T21:56:25.610Z,22.54
2022-10-08T21:58:53.463Z,22.48
2022-10-08T22:01:21.898Z,22.58
2022-10-08T22:03:52.463Z,22.58
2022-10-08T22:06:19.581Z,22.43
2022-10-08T22:08:46.731Z,22.40
2022-10-08T22:11:14.108Z,22.41
2022-10-08T22:13:41.203Z,22.46
2022-10-08T22:16:08.785Z,22.11
2022-10-08T22:18:36.310Z,22.03
2022-10-08T22:21:07.681Z,22.08
2022-10-08T22:23:35.103Z,22.19
2022-10-08T22:26:03.811Z,22.00
2022-10-08T22:28:31.068Z,21.89
2022-10-08T22:30:58.858Z,22.08
2022-10-08T22:33:26.262Z,22.27
2022-10-08T22:35:53.371Z,21.92
2022-10-08T22:38:20.485Z,22.04
2022-10-08T22:40:47.887Z,22.13
2022-10-08T22:43:15.174Z,22.14
2022-10-08T22:45:42.340Z,22.16
2022-10-08T22:48:09.763Z,22.13
2022-10-08T22:50:38.221Z,22.03
2022-10-08T22:53:05.367Z,21.79
2022-10-08T22:55:32.768Z,21.82
2022-10-08T22:57:59.897Z,21.47
2022-10-08T23:00:27.061Z,21.78
2022-10-08T23:02:54.477Z,21.45
2022-10-08T23:05:21.649Z,21.34
2022-10-08T23:07:48.773Z,21.74
2022-10-08T23:10:16.166Z,21.66
2022-10-08T23:12:43.307Z,21.83
2022-10-08T23:15:10.501Z,21.90
2022-10-08T23:17:37.924Z,21.98
2022-10-08T23:20:05.330Z,21.76
2022-10-08T23:22:33.551Z,21.70
2022-10-08T23:25:00.950Z,21.82
2022-10-08T23:27:28.062Z,21.59
2022-10-08T23:29:56.228Z,21.63
2022-10-08T23:32:23.659Z,21.86
2022-10-08T23:34:50.755Z,21.90
2022-10-08T23:37:17.878Z,22.06
2022-10-08T23:39:45.261Z,21.92
2022-10-08T23:42:12.407Z,22.09
2022-10-08T23:44:39.548Z,22.01
2022-10-08T23:47:07.023Z,21.93
2022-10-08T23:49:34.288Z,21.87
2022-10-08T23:52:01.627Z,22.01
2022-10-08T23:54:29.001Z,22.01
2022-10-08T23:56:56.120Z,21.81
2022-10-08T23:59:23.233Z,21.79
